sensor_id;sensor_type;location;lat;lon;timestamp;pressure;altitude;pressure_sealevel;temperature;humidity
23016;BME280;11674;52.428;13.584;2022-08-25T00:01:27;101786.00;;;22.36;67.41
23016;BME280;11674;52.428;13.584;2022-08-25T00:04:00;101783.06;;;22.32;67.58
23016;BME280;11674;52.428;13.584;2022-08-25T00:06:34;101780.06;;;22.29;67.76
23016;BME280;11674;52.428;13.584;2022-08-25T00:09:08;101775.44;;;22.24;67.91
23016;BME280;11674;52.428;13.584;2022-08-25T00:11:41;101775.78;;;22.23;67.94
23016;BME280;11674;52.428;13.584;2022-08-25T00:14:26;101770.84;;;22.20;68.02
23016;BME280;11674;52.428;13.584;2022-08-25T00:16:58;101774.00;;;22.18;68.16
23016;BME280;11674;52.428;13.584;2022-08-25T00:19:32;101771.31;;;22.22;67.92
23016;BME280;11674;52.428;13.584;2022-08-25T00:22:05;101770.97;;;22.23;68.21
23016;BME280;11674;52.428;13.584;2022-08-25T00:24:38;101768.97;;;22.24;68.08
23016;BME280;11674;52.428;13.584;2022-08-25T00:27:10;101760.84;;;22.22;68.23
23016;BME280;11674;52.428;13.584;2022-08-25T00:29:42;101766.34;;;22.19;68.43
23016;BME280;11674;52.428;13.584;2022-08-25T00:32:14;101775.50;;;22.16;68.24
23016;BME280;11674;52.428;13.584;2022-08-25T00:34:46;101761.03;;;22.17;68.33
23016;BME280;11674;52.428;13.584;2022-08-25T00:37:11;101761.84;;;22.18;68.29
23016;BME280;11674;52.428;13.584;2022-08-25T00:39:44;101757.22;;;22.13;68.65
23016;BME280;11674;52.428;13.584;2022-08-25T00:42:16;101758.94;;;22.06;68.70
23016;BME280;11674;52.428;13.584;2022-08-25T00:44:41;101755.50;;;22.00;68.39
23016;BME280;11674;52.428;13.584;2022-08-25T00:47:14;101750.88;;;21.96;68.78
23016;BME280;11674;52.428;13.584;2022-08-25T00:49:57;101760.53;;;21.95;68.71
23016;BME280;11674;52.428;13.584;2022-08-25T00:52:39;101754.88;;;21.95;68.96
23016;BME280;11674;52.428;13.584;2022-08-25T00:58:15;101760.53;;;21.95;69.09
23016;BME280;11674;52.428;13.584;2022-08-25T01:00:50;101766.66;;;21.97;68.67
23016;BME280;11674;52.428;13.584;2022-08-25T01:03:26;101759.34;;;21.96;68.70
23016;BME280;11674;52.428;13.584;2022-08-25T01:06:00;101765.84;;;21.96;68.98
23016;BME280;11674;52.428;13.584;2022-08-25T01:08:33;101765.84;;;21.96;68.91
23016;BME280;11674;52.428;13.584;2022-08-25T01:11:07;101757.34;;;21.96;68.72
23016;BME280;11674;52.428;13.584;2022-08-25T01:13:47;101765.50;;;21.98;69.25
23016;BME280;11674;52.428;13.584;2022-08-25T01:16:22;101762.16;;;21.96;68.77
23016;BME280;11674;52.428;13.584;2022-08-25T01:18:56;101761.91;;;21.89;69.02
23016;BME280;11674;52.428;13.584;2022-08-25T01:21:30;101758.78;;;21.82;69.20
23016;BME280;11674;52.428;13.584;2022-08-25T01:24:02;101758.13;;;21.76;69.44
23016;BME280;11674;52.428;13.584;2022-08-25T01:26:34;101764.81;;;21.72;69.42
23016;BME280;11674;52.428;13.584;2022-08-25T01:29:08;101762.97;;;21.67;69.40
23016;BME280;11674;52.428;13.584;2022-08-25T01:31:40;101756.84;;;21.65;69.58
23016;BME280;11674;52.428;13.584;2022-08-25T01:34:12;101749.03;;;21.62;69.62
23016;BME280;11674;52.428;13.584;2022-08-25T01:36:44;101755.84;;;21.61;69.65
23016;BME280;11674;52.428;13.584;2022-08-25T01:39:16;101752.69;;;21.63;69.94
23016;BME280;11674;52.428;13.584;2022-08-25T01:44:20;101757.00;;;21.69;69.78
23016;BME280;11674;52.428;13.584;2022-08-25T01:46:52;101755.19;;;21.64;70.08
23016;BME280;11674;52.428;13.584;2022-08-25T01:49:25;101752.22;;;21.61;70.13
23016;BME280;11674;52.428;13.584;2022-08-25T01:52:05;101760.88;;;21.56;70.30
23016;BME280;11674;52.428;13.584;2022-08-25T01:54:37;101745.31;;;21.50;70.19
23016;BME280;11674;52.428;13.584;2022-08-25T01:57:09;101752.47;;;21.47;69.99
23016;BME280;11674;52.428;13.584;2022-08-25T01:59:41;101754.28;;;21.43;70.37
23016;BME280;11674;52.428;13.584;2022-08-25T02:02:13;101751.00;;;21.41;70.18
23016;BME280;11674;52.428;13.584;2022-08-25T02:04:45;101748.50;;;21.40;70.29
23016;BME280;11674;52.428;13.584;2022-08-25T02:07:17;101748.00;;;21.38;70.74
23016;BME280;11674;52.428;13.584;2022-08-25T02:09:49;101754.81;;;21.37;70.36
23016;BME280;11674;52.428;13.584;2022-08-25T02:12:21;101752.00;;;21.37;70.42
23016;BME280;11674;52.428;13.584;2022-08-25T02:14:53;101750.00;;;21.37;70.41
23016;BME280;11674;52.428;13.584;2022-08-25T02:17:25;101749.69;;;21.39;70.82
23016;BME280;11674;52.428;13.584;2022-08-25T02:19:57;101744.16;;;21.42;70.38
23016;BME280;11674;52.428;13.584;2022-08-25T02:22:29;101747.94;;;21.46;70.60
23016;BME280;11674;52.428;13.584;2022-08-25T02:25:02;101735.50;;;21.47;70.49
23016;BME280;11674;52.428;13.584;2022-08-25T02:27:34;101731.00;;;21.46;70.63
23016;BME280;11674;52.428;13.584;2022-08-25T02:30:07;101729.72;;;21.44;70.68
23016;BME280;11674;52.428;13.584;2022-08-25T02:32:38;101735.19;;;21.40;70.34
23016;BME280;11674;52.428;13.584;2022-08-25T02:35:10;101736.03;;;21.41;70.47
23016;BME280;11674;52.428;13.584;2022-08-25T02:37:42;101726.38;;;21.42;70.49
23016;BME280;11674;52.428;13.584;2022-08-25T02:40:14;101727.09;;;21.39;70.82
23016;BME280;11674;52.428;13.584;2022-08-25T02:42:49;101720.78;;;21.33;70.65
23016;BME280;11674;52.428;13.584;2022-08-25T02:45:21;101715.66;;;21.27;70.92
23016;BME280;11674;52.428;13.584;2022-08-25T02:47:53;101719.66;;;21.26;70.75
23016;BME280;11674;52.428;13.584;2022-08-25T02:50:25;101728.13;;;21.26;71.03
23016;BME280;11674;52.428;13.584;2022-08-25T02:52:57;101728.13;;;21.26;71.08
23016;BME280;11674;52.428;13.584;2022-08-25T02:55:29;101729.44;;;21.28;70.92
23016;BME280;11674;52.428;13.584;2022-08-25T02:58:01;101720.97;;;21.28;71.08
23016;BME280;11674;52.428;13.584;2022-08-25T03:00:33;101714.50;;;21.28;71.12
23016;BME280;11674;52.428;13.584;2022-08-25T03:03:05;101723.78;;;21.28;70.72
23016;BME280;11674;52.428;13.584;2022-08-25T03:05:37;101722.13;;;21.27;71.11
23016;BME280;11674;52.428;13.584;2022-08-25T03:08:09;101716.34;;;21.24;71.06
23016;BME280;11674;52.428;13.584;2022-08-25T03:10:41;101708.53;;;21.21;71.12
23016;BME280;11674;52.428;13.584;2022-08-25T03:13:13;101714.53;;;21.19;71.32
23016;BME280;11674;52.428;13.584;2022-08-25T03:15:45;101712.53;;;21.20;71.32
23016;BME280;11674;52.428;13.584;2022-08-25T03:18:17;101705.25;;;21.19;71.34
23016;BME280;11674;52.428;13.584;2022-08-25T03:20:49;101699.44;;;21.15;71.25
23016;BME280;11674;52.428;13.584;2022-08-25T03:23:21;101714.22;;;21.12;71.31
23016;BME280;11674;52.428;13.584;2022-08-25T03:25:54;101710.59;;;21.12;71.50
23016;BME280;11674;52.428;13.584;2022-08-25T03:28:26;101707.41;;;21.13;71.44
23016;BME280;11674;52.428;13.584;2022-08-25T03:35:56;101697.97;;;21.09;71.43
23016;BME280;11674;52.428;13.584;2022-08-25T03:38:28;101701.78;;;21.05;71.40
23016;BME280;11674;52.428;13.584;2022-08-25T03:41:00;101693.50;;;21.00;71.50
23016;BME280;11674;52.428;13.584;2022-08-25T03:43:32;101694.69;;;20.99;71.77
23016;BME280;11674;52.428;13.584;2022-08-25T03:46:04;101690.69;;;21.00;71.77
23016;BME280;11674;52.428;13.584;2022-08-25T03:48:36;101703.31;;;21.02;71.34
23016;BME280;11674;52.428;13.584;2022-08-25T03:51:08;101703.31;;;21.02;71.33
23016;BME280;11674;52.428;13.584;2022-08-25T03:53:40;101701.97;;;21.00;71.57
23016;BME280;11674;52.428;13.584;2022-08-25T03:56:12;101705.13;;;20.98;71.49
23016;BME280;11674;52.428;13.584;2022-08-25T03:58:37;101701.16;;;20.99;71.50
23016;BME280;11674;52.428;13.584;2022-08-25T04:01:09;101699.50;;;20.98;71.49
23016;BME280;11674;52.428;13.584;2022-08-25T04:03:41;101709.97;;;20.98;71.63
23016;BME280;11674;52.428;13.584;2022-08-25T04:06:07;101705.13;;;20.98;71.69
23016;BME280;11674;52.428;13.584;2022-08-25T04:08:39;101705.50;;;20.97;71.74
23016;BME280;11674;52.428;13.584;2022-08-25T04:11:17;101710.63;;;20.95;71.96
23016;BME280;11674;52.428;13.584;2022-08-25T04:13:50;101717.97;;;20.96;71.89
23016;BME280;11674;52.428;13.584;2022-08-25T04:16:26;101713.81;;;20.93;71.94
23016;BME280;11674;52.428;13.584;2022-08-25T04:19:00;101709.66;;;20.91;71.84
23016;BME280;11674;52.428;13.584;2022-08-25T04:21:32;101712.50;;;20.91;71.95
23016;BME280;11674;52.428;13.584;2022-08-25T04:24:06;101714.13;;;20.92;71.90
23016;BME280;11674;52.428;13.584;2022-08-25T04:26:41;101710.47;;;20.91;71.75
23016;BME280;11674;52.428;13.584;2022-08-25T04:29:15;101717.63;;;20.89;72.15
23016;BME280;11674;52.428;13.584;2022-08-25T04:31:48;101719.41;;;20.85;71.98
23016;BME280;11674;52.428;13.584;2022-08-25T04:34:21;101712.81;;;20.81;72.01
23016;BME280;11674;52.428;13.584;2022-08-25T04:36:53;101708.66;;;20.78;72.42
23016;BME280;11674;52.428;13.584;2022-08-25T04:39:25;101718.63;;;20.76;72.07
23016;BME280;11674;52.428;13.584;2022-08-25T04:41:58;101717.78;;;20.75;72.34
23016;BME280;11674;52.428;13.584;2022-08-25T04:44:30;101729.59;;;20.77;72.52
23016;BME280;11674;52.428;13.584;2022-08-25T04:47:01;101722.44;;;20.80;72.24
23016;BME280;11674;52.428;13.584;2022-08-25T04:49:34;101729.38;;;20.82;72.61
23016;BME280;11674;52.428;13.584;2022-08-25T04:52:06;101733.03;;;20.83;72.25
23016;BME280;11674;52.428;13.584;2022-08-25T04:54:38;101739.16;;;20.85;72.33
23016;BME280;11674;52.428;13.584;2022-08-25T04:57:10;101734.53;;;20.89;72.56
23016;BME280;11674;52.428;13.584;2022-08-25T04:59:42;101734.38;;;20.94;72.55
23016;BME280;11674;52.428;13.584;2022-08-25T05:02:14;101736.16;;;20.98;72.29
23016;BME280;11674;52.428;13.584;2022-08-25T05:04:46;101738.16;;;21.06;72.64
23016;BME280;11674;52.428;13.584;2022-08-25T05:07:18;101728.34;;;21.12;72.32
23016;BME280;11674;52.428;13.584;2022-08-25T05:09:50;101731.81;;;21.18;72.65
23016;BME280;11674;52.428;13.584;2022-08-25T05:12:22;101740.09;;;21.23;72.59
23016;BME280;11674;52.428;13.584;2022-08-25T05:14:54;101729.28;;;21.25;72.62
23016;BME280;11674;52.428;13.584;2022-08-25T05:17:26;101727.78;;;21.27;72.14
23016;BME280;11674;52.428;13.584;2022-08-25T05:19:58;101737.56;;;21.30;72.19
23016;BME280;11674;52.428;13.584;2022-08-25T05:22:30;101741.38;;;21.34;72.51
23016;BME280;11674;52.428;13.584;2022-08-25T05:25:02;101747.19;;;21.37;72.42
23016;BME280;11674;52.428;13.584;2022-08-25T05:27:34;101745.53;;;21.36;72.51
23016;BME280;11674;52.428;13.584;2022-08-25T05:30:08;101747.19;;;21.37;72.44
23016;BME280;11674;52.428;13.584;2022-08-25T05:32:39;101749.69;;;21.39;72.71
23016;BME280;11674;52.428;13.584;2022-08-25T05:35:11;101738.53;;;21.42;72.82
23016;BME280;11674;52.428;13.584;2022-08-25T05:37:43;101742.81;;;21.48;72.68
23016;BME280;11674;52.428;13.584;2022-08-25T05:40:15;101738.16;;;21.52;72.48
23016;BME280;11674;52.428;13.584;2022-08-25T05:42:47;101746.06;;;21.59;72.49
23016;BME280;11674;52.428;13.584;2022-08-25T05:45:19;101735.41;;;21.64;72.57
23016;BME280;11674;52.428;13.584;2022-08-25T05:47:51;101743.72;;;21.69;72.53
23016;BME280;11674;52.428;13.584;2022-08-25T05:50:23;101749.03;;;21.71;72.50
23016;BME280;11674;52.428;13.584;2022-08-25T05:52:55;101750.69;;;21.72;72.53
23016;BME280;11674;52.428;13.584;2022-08-25T05:55:27;101744.00;;;21.76;72.70
23016;BME280;11674;52.428;13.584;2022-08-25T05:57:53;101744.16;;;21.80;72.19
23016;BME280;11674;52.428;13.584;2022-08-25T06:00:24;101740.84;;;21.78;72.26
23016;BME280;11674;52.428;13.584;2022-08-25T06:02:56;101741.72;;;21.70;72.56
23016;BME280;11674;52.428;13.584;2022-08-25T06:05:28;101745.22;;;21.67;72.67
23016;BME280;11674;52.428;13.584;2022-08-25T06:08:00;101746.88;;;21.68;72.58
23016;BME280;11674;52.428;13.584;2022-08-25T06:10:33;101749.53;;;21.73;72.85
23016;BME280;11674;52.428;13.584;2022-08-25T06:13:05;101749.00;;;21.79;72.43
23016;BME280;11674;52.428;13.584;2022-08-25T06:15:37;101746.78;;;21.85;72.76
23016;BME280;11674;52.428;13.584;2022-08-25T06:18:09;101739.63;;;21.87;72.43
23016;BME280;11674;52.428;13.584;2022-08-25T06:20:41;101739.63;;;21.87;72.78
23016;BME280;11674;52.428;13.584;2022-08-25T06:23:13;101736.78;;;21.87;72.61
23016;BME280;11674;52.428;13.584;2022-08-25T06:25:52;101741.56;;;21.95;72.92
23016;BME280;11674;52.428;13.584;2022-08-25T06:28:24;101740.19;;;22.01;72.82
23016;BME280;11674;52.428;13.584;2022-08-25T06:30:58;101738.34;;;22.05;72.93
23016;BME280;11674;52.428;13.584;2022-08-25T06:33:31;101742.56;;;22.20;73.05
23016;BME280;11674;52.428;13.584;2022-08-25T06:36:02;101738.47;;;22.29;72.53
23016;BME280;11674;52.428;13.584;2022-08-25T06:38:35;101734.75;;;22.37;72.64
23016;BME280;11674;52.428;13.584;2022-08-25T06:41:07;101741.22;;;22.38;72.41
23016;BME280;11674;52.428;13.584;2022-08-25T06:43:41;101739.38;;;22.42;72.28
23016;BME280;11674;52.428;13.584;2022-08-25T06:46:23;101750.50;;;22.47;72.34
23016;BME280;11674;52.428;13.584;2022-08-25T06:48:56;101751.94;;;22.53;72.45
23016;BME280;11674;52.428;13.584;2022-08-25T06:51:28;101747.72;;;22.59;72.03
23016;BME280;11674;52.428;13.584;2022-08-25T06:54:00;101745.38;;;22.61;72.22
23016;BME280;11674;52.428;13.584;2022-08-25T06:56:33;101750.81;;;22.66;72.39
23016;BME280;11674;52.428;13.584;2022-08-25T06:59:06;101747.31;;;22.69;72.01
23016;BME280;11674;52.428;13.584;2022-08-25T07:01:38;101750.59;;;22.71;72.10
23016;BME280;11674;52.428;13.584;2022-08-25T07:04:10;101754.88;;;22.77;71.84
23016;BME280;11674;52.428;13.584;2022-08-25T07:06:36;101755.50;;;22.82;72.12
23016;BME280;11674;52.428;13.584;2022-08-25T07:09:08;101747.75;;;22.91;72.05
23016;BME280;11674;52.428;13.584;2022-08-25T07:11:41;101742.13;;;23.03;72.11
23016;BME280;11674;52.428;13.584;2022-08-25T07:14:16;101744.22;;;23.06;71.34
23016;BME280;11674;52.428;13.584;2022-08-25T07:16:48;101742.34;;;22.98;71.30
23016;BME280;11674;52.428;13.584;2022-08-25T07:19:19;101739.59;;;22.90;71.75
23016;BME280;11674;52.428;13.584;2022-08-25T07:21:52;101745.13;;;22.86;71.95
23016;BME280;11674;52.428;13.584;2022-08-25T07:24:23;101738.75;;;22.89;71.87
23016;BME280;11674;52.428;13.584;2022-08-25T07:26:55;101741.03;;;22.96;71.73
23016;BME280;11674;52.428;13.584;2022-08-25T07:29:34;101740.13;;;23.04;71.62
23016;BME280;11674;52.428;13.584;2022-08-25T07:32:06;101738.00;;;23.13;71.45
23016;BME280;11674;52.428;13.584;2022-08-25T07:34:38;101734.47;;;23.16;71.63
23016;BME280;11674;52.428;13.584;2022-08-25T07:37:10;101740.47;;;23.14;71.35
23016;BME280;11674;52.428;13.584;2022-08-25T07:39:42;101735.16;;;23.13;71.28
23016;BME280;11674;52.428;13.584;2022-08-25T07:42:14;101738.22;;;23.08;71.24
23016;BME280;11674;52.428;13.584;2022-08-25T07:44:46;101734.69;;;23.11;71.51
23016;BME280;11674;52.428;13.584;2022-08-25T07:47:18;101738.72;;;23.10;71.40
23016;BME280;11674;52.428;13.584;2022-08-25T07:49:50;101735.38;;;23.08;71.30
23016;BME280;11674;52.428;13.584;2022-08-25T07:52:22;101744.97;;;23.15;71.41
23016;BME280;11674;52.428;13.584;2022-08-25T07:54:54;101744.53;;;23.25;71.47
23016;BME280;11674;52.428;13.584;2022-08-25T07:57:27;101733.44;;;23.32;71.24
23016;BME280;11674;52.428;13.584;2022-08-25T07:59:58;101731.91;;;23.35;71.01
23016;BME280;11674;52.428;13.584;2022-08-25T08:02:38;101728.41;;;23.38;71.12
23016;BME280;11674;52.428;13.584;2022-08-25T08:05:12;101724.59;;;23.46;70.99
23016;BME280;11674;52.428;13.584;2022-08-25T08:07:44;101737.00;;;23.53;70.59
23016;BME280;11674;52.428;13.584;2022-08-25T08:10:17;101735.25;;;23.61;70.60
23016;BME280;11674;52.428;13.584;2022-08-25T08:12:48;101730.63;;;23.80;70.92
23016;BME280;11674;52.428;13.584;2022-08-25T08:15:20;101727.19;;;23.99;70.45
23016;BME280;11674;52.428;13.584;2022-08-25T08:17:52;101728.13;;;24.15;70.32
23016;BME280;11674;52.428;13.584;2022-08-25T08:20:25;101727.97;;;24.35;69.66
23016;BME280;11674;52.428;13.584;2022-08-25T08:22:57;101730.50;;;24.52;69.70
23016;BME280;11674;52.428;13.584;2022-08-25T08:25:29;101725.38;;;24.70;69.31
23016;BME280;11674;52.428;13.584;2022-08-25T08:28:01;101716.97;;;24.89;68.99
23016;BME280;11674;52.428;13.584;2022-08-25T08:30:33;101709.03;;;24.94;68.54
23016;BME280;11674;52.428;13.584;2022-08-25T08:33:05;101724.28;;;24.90;68.23
23016;BME280;11674;52.428;13.584;2022-08-25T08:35:39;101719.34;;;24.87;68.06
23016;BME280;11674;52.428;13.584;2022-08-25T08:38:10;101718.44;;;24.83;68.07
23016;BME280;11674;52.428;13.584;2022-08-25T08:44:03;101712.06;;;25.17;67.85
23016;BME280;11674;52.428;13.584;2022-08-25T08:53:07;101701.78;;;25.74;66.62
23016;BME280;11674;52.428;13.584;2022-08-25T08:55:54;101698.66;;;25.95;66.38
23016;BME280;11674;52.428;13.584;2022-08-25T08:58:52;101696.59;;;26.11;66.20
23016;BME280;11674;52.428;13.584;2022-08-25T09:01:29;101695.25;;;26.24;65.91
23016;BME280;11674;52.428;13.584;2022-08-25T09:04:08;101693.47;;;26.35;65.54
23016;BME280;11674;52.428;13.584;2022-08-25T09:06:44;101703.06;;;26.46;65.08
23016;BME280;11674;52.428;13.584;2022-08-25T09:09:35;101702.94;;;26.42;64.92
23016;BME280;11674;52.428;13.584;2022-08-25T09:12:12;101700.56;;;26.44;64.63
23016;BME280;11674;52.428;13.584;2022-08-25T09:17:55;101695.91;;;26.36;64.55
23016;BME280;11674;52.428;13.584;2022-08-25T09:23:41;101682.72;;;26.47;63.82
23016;BME280;11674;52.428;13.584;2022-08-25T09:26:20;101684.09;;;26.53;63.94
23016;BME280;11674;52.428;13.584;2022-08-25T09:31:37;101678.34;;;26.69;63.30
23016;BME280;11674;52.428;13.584;2022-08-25T09:34:18;101672.69;;;26.72;63.03
23016;BME280;11674;52.428;13.584;2022-08-25T09:36:50;101667.91;;;26.76;62.98
23016;BME280;11674;52.428;13.584;2022-08-25T09:39:16;101671.81;;;26.68;62.71
23016;BME280;11674;52.428;13.584;2022-08-25T09:41:49;101663.78;;;26.55;62.98
23016;BME280;11674;52.428;13.584;2022-08-25T09:47:20;101669.75;;;26.50;62.75
23016;BME280;11674;52.428;13.584;2022-08-25T09:49:56;101668.78;;;26.42;62.92
23016;BME280;11674;52.428;13.584;2022-08-25T09:52:33;101672.91;;;26.45;62.86
23016;BME280;11674;52.428;13.584;2022-08-25T09:57:45;101670.53;;;26.47;62.66
23016;BME280;11674;52.428;13.584;2022-08-25T10:00:24;101653.16;;;26.52;62.66
23016;BME280;11674;52.428;13.584;2022-08-25T10:03:10;101657.13;;;26.66;62.46
23016;BME280;11674;52.428;13.584;2022-08-25T10:08:30;101659.75;;;26.97;62.06
23016;BME280;11674;52.428;13.584;2022-08-25T10:11:08;101659.13;;;27.07;61.50
23016;BME280;11674;52.428;13.584;2022-08-25T10:13:47;101658.81;;;27.12;61.27
23016;BME280;11674;52.428;13.584;2022-08-25T10:16:28;101653.25;;;27.19;61.20
23016;BME280;11674;52.428;13.584;2022-08-25T10:19:07;101652.63;;;27.29;60.64
23016;BME280;11674;52.428;13.584;2022-08-25T10:21:41;101651.03;;;27.32;60.80
23016;BME280;11674;52.428;13.584;2022-08-25T10:24:13;101649.88;;;27.36;60.58
23016;BME280;11674;52.428;13.584;2022-08-25T10:26:56;101648.59;;;27.34;60.10
23016;BME280;11674;52.428;13.584;2022-08-25T10:32:30;101642.25;;;27.44;59.96
23016;BME280;11674;52.428;13.584;2022-08-25T10:35:17;101642.53;;;27.35;59.63
23016;BME280;11674;52.428;13.584;2022-08-25T10:38:05;101632.19;;;27.27;59.44
23016;BME280;11674;52.428;13.584;2022-08-25T10:41:19;101634.31;;;27.30;59.70
23016;BME280;11674;52.428;13.584;2022-08-25T10:44:16;101626.38;;;27.43;59.34
23016;BME280;11674;52.428;13.584;2022-08-25T10:46:55;101622.63;;;27.39;58.99
23016;BME280;11674;52.428;13.584;2022-08-25T10:49:39;101625.16;;;27.44;59.19
23016;BME280;11674;52.428;13.584;2022-08-25T10:52:31;101605.00;;;27.59;59.28
23016;BME280;11674;52.428;13.584;2022-08-25T10:55:42;101603.09;;;27.67;58.97
23016;BME280;11674;52.428;13.584;2022-08-25T11:04:17;101585.78;;;27.79;58.65
23016;BME280;11674;52.428;13.584;2022-08-25T11:06:58;101589.19;;;27.91;58.14
23016;BME280;11674;52.428;13.584;2022-08-25T11:09:37;101585.31;;;28.06;58.21
23016;BME280;11674;52.428;13.584;2022-08-25T11:12:28;101579.63;;;28.10;57.64
23016;BME280;11674;52.428;13.584;2022-08-25T11:15:24;101578.22;;;28.26;57.83
23016;BME280;11674;52.428;13.584;2022-08-25T11:18:03;101571.13;;;28.43;57.37
23016;BME280;11674;52.428;13.584;2022-08-25T11:23:49;101558.53;;;28.91;56.92
23016;BME280;11674;52.428;13.584;2022-08-25T11:26:27;101564.84;;;29.14;56.22
23016;BME280;11674;52.428;13.584;2022-08-25T11:29:05;101563.34;;;29.30;56.05
23016;BME280;11674;52.428;13.584;2022-08-25T11:31:43;101561.44;;;29.52;55.51
23016;BME280;11674;52.428;13.584;2022-08-25T11:34:15;101547.25;;;29.66;55.07
23016;BME280;11674;52.428;13.584;2022-08-25T11:36:57;101557.09;;;29.68;55.21
23016;BME280;11674;52.428;13.584;2022-08-25T11:45:13;101556.34;;;29.82;54.02
23016;BME280;11674;52.428;13.584;2022-08-25T11:51:09;101540.81;;;29.83;54.23
23016;BME280;11674;52.428;13.584;2022-08-25T11:53:42;101546.16;;;29.91;54.24
23016;BME280;11674;52.428;13.584;2022-08-25T11:56:33;101552.78;;;30.13;53.48
23016;BME280;11674;52.428;13.584;2022-08-25T11:59:07;101543.81;;;30.18;52.98
23016;BME280;11674;52.428;13.584;2022-08-25T12:04:40;101525.03;;;30.38;52.32
23016;BME280;11674;52.428;13.584;2022-08-25T12:07:18;101515.25;;;30.56;52.24
23016;BME280;11674;52.428;13.584;2022-08-25T12:12:26;101516.50;;;31.25;50.96
23016;BME280;11674;52.428;13.584;2022-08-25T12:16:00;101511.16;;;31.41;50.71
23016;BME280;11674;52.428;13.584;2022-08-25T12:24:10;101503.28;;;31.73;49.37
23016;BME280;11674;52.428;13.584;2022-08-25T12:26:57;101491.81;;;32.49;48.10
23016;BME280;11674;52.428;13.584;2022-08-25T12:29:49;101489.19;;;33.53;46.91
23016;BME280;11674;52.428;13.584;2022-08-25T12:35:26;101473.63;;;34.67;45.32
23016;BME280;11674;52.428;13.584;2022-08-25T12:41:12;101466.16;;;35.15;44.26
23016;BME280;11674;52.428;13.584;2022-08-25T12:43:47;101460.28;;;35.19;43.81
23016;BME280;11674;52.428;13.584;2022-08-25T12:49:09;101451.91;;;34.82;43.33
23016;BME280;11674;52.428;13.584;2022-08-25T12:57:03;101445.69;;;35.49;42.24
23016;BME280;11674;52.428;13.584;2022-08-25T12:59:40;101452.94;;;35.57;41.87
23016;BME280;11674;52.428;13.584;2022-08-25T13:11:19;101447.81;;;36.23;40.54
23016;BME280;11674;52.428;13.584;2022-08-25T13:14:00;101452.25;;;36.08;40.46
23016;BME280;11674;52.428;13.584;2022-08-25T13:16:36;101445.00;;;36.19;40.69
23016;BME280;11674;52.428;13.584;2022-08-25T13:19:17;101441.19;;;36.22;39.66
23016;BME280;11674;52.428;13.584;2022-08-25T13:21:50;101450.69;;;35.87;40.32
23016;BME280;11674;52.428;13.584;2022-08-25T13:24:28;101444.81;;;35.52;40.03
23016;BME280;11674;52.428;13.584;2022-08-25T13:27:05;101442.91;;;34.80;39.64
23016;BME280;11674;52.428;13.584;2022-08-25T13:29:51;101443.84;;;34.20;40.48
23016;BME280;11674;52.428;13.584;2022-08-25T13:32:27;101434.16;;;34.07;40.67
23016;BME280;11674;52.428;13.584;2022-08-25T13:35:27;101428.94;;;33.99;40.74
23016;BME280;11674;52.428;13.584;2022-08-25T13:38:18;101430.53;;;33.73;40.80
23016;BME280;11674;52.428;13.584;2022-08-25T13:40:49;101437.97;;;33.71;40.88
23016;BME280;11674;52.428;13.584;2022-08-25T13:43:21;101424.47;;;33.94;40.60
23016;BME280;11674;52.428;13.584;2022-08-25T13:45:53;101415.78;;;33.98;40.12
23016;BME280;11674;52.428;13.584;2022-08-25T13:48:33;101412.84;;;34.01;40.18
23016;BME280;11674;52.428;13.584;2022-08-25T13:51:08;101410.63;;;34.12;40.18
23016;BME280;11674;52.428;13.584;2022-08-25T13:53:47;101396.25;;;34.09;39.73
23016;BME280;11674;52.428;13.584;2022-08-25T13:56:25;101402.19;;;33.98;40.42
23016;BME280;11674;52.428;13.584;2022-08-25T13:58:59;101407.47;;;33.73;40.52
23016;BME280;11674;52.428;13.584;2022-08-25T14:01:44;101405.47;;;33.37;40.44
23016;BME280;11674;52.428;13.584;2022-08-25T14:09:56;101401.56;;;33.17;40.78
23016;BME280;11674;52.428;13.584;2022-08-25T14:12:42;101398.22;;;33.22;40.89
23016;BME280;11674;52.428;13.584;2022-08-25T14:18:09;101400.31;;;33.55;40.53
23016;BME280;11674;52.428;13.584;2022-08-25T14:20:46;101391.63;;;33.58;40.60
23016;BME280;11674;52.428;13.584;2022-08-25T14:23:24;101393.16;;;33.66;40.51
23016;BME280;11674;52.428;13.584;2022-08-25T14:25:57;101388.28;;;33.63;40.41
23016;BME280;11674;52.428;13.584;2022-08-25T14:28:29;101387.34;;;33.70;40.16
23016;BME280;11674;52.428;13.584;2022-08-25T14:31:08;101384.25;;;33.57;39.89
23016;BME280;11674;52.428;13.584;2022-08-25T14:33:50;101373.16;;;33.22;40.26
23016;BME280;11674;52.428;13.584;2022-08-25T14:36:23;101374.66;;;33.00;40.73
23016;BME280;11674;52.428;13.584;2022-08-25T14:38:49;101370.25;;;32.89;40.80
23016;BME280;11674;52.428;13.584;2022-08-25T14:41:22;101362.72;;;33.02;40.70
23016;BME280;11674;52.428;13.584;2022-08-25T14:43:54;101369.53;;;33.15;40.73
23016;BME280;11674;52.428;13.584;2022-08-25T14:46:28;101362.25;;;33.03;40.79
23016;BME280;11674;52.428;13.584;2022-08-25T14:49:05;101358.50;;;33.10;40.66
23016;BME280;11674;52.428;13.584;2022-08-25T14:51:39;101358.16;;;33.04;40.67
23016;BME280;11674;52.428;13.584;2022-08-25T14:54:12;101361.84;;;33.05;40.89
23016;BME280;11674;52.428;13.584;2022-08-25T14:56:45;101349.84;;;33.10;40.61
23016;BME280;11674;52.428;13.584;2022-08-25T14:59:17;101355.53;;;33.17;40.94
23016;BME280;11674;52.428;13.584;2022-08-25T15:01:50;101351.25;;;33.32;40.56